Time;durP1;ratioP1;P1;durP2;ratioP2;P2;SDS_P1;SDS_P2;PMS_P1;PMS_P2;Temp;Humidity;BMP_temperature;BMP_pressure;BME280_temperature;BME280_humidity;BME280_pressure;Samples;Min_cycle;Max_cycle;Signal;HPM_P1;HPM_P2
2023/12/17 00:00:12;;;;;;;14.70;6.40;;;2.80;98.00;;;;;;5012081;28;20939;-70
2023/12/17 00:02:40;;;;;;;15.80;6.53;;;2.90;98.00;;;;;;5012173;28;20452;-70
2023/12/17 00:05:09;;;;;;;10.97;5.23;;;2.90;98.00;;;;;;5012039;28;20963;-70
2023/12/17 00:07:36;;;;;;;30.13;6.47;;;2.90;98.00;;;;;;5011473;28;20841;-70
2023/12/17 00:10:04;;;;;;;15.50;5.80;;;2.90;98.00;;;;;;5010858;28;20466;-70
2023/12/17 00:12:31;;;;;;;17.27;6.53;;;2.90;98.00;;;;;;5011932;28;20487;-70
2023/12/17 00:14:58;;;;;;;16.23;5.60;;;2.70;98.00;;;;;;5012202;28;20456;-71
2023/12/17 00:17:25;;;;;;;13.60;5.90;;;2.60;98.00;;;;;;5011988;28;20456;-70
2023/12/17 00:19:52;;;;;;;13.57;6.10;;;2.50;98.00;;;;;;5011946;28;20798;-69
2023/12/17 00:22:21;;;;;;;16.60;6.00;;;2.40;98.00;;;;;;5011888;28;20463;-70
2023/12/17 00:24:48;;;;;;;14.47;4.87;;;2.30;98.00;;;;;;5011855;28;20463;-70
2023/12/17 00:27:15;;;;;;;12.40;5.80;;;2.20;98.00;;;;;;5011846;28;20977;-70
2023/12/17 00:29:43;;;;;;;12.27;5.73;;;2.20;98.00;;;;;;5012150;28;20451;-70
2023/12/17 00:32:10;;;;;;;10.70;5.40;;;2.40;98.00;;;;;;5011790;28;20491;-70
2023/12/17 00:34:37;;;;;;;17.33;6.13;;;2.50;98.00;;;;;;5012063;28;21156;-70
2023/12/17 00:37:04;;;;;;;14.17;5.60;;;2.60;98.00;;;;;;5011980;28;20468;-70
2023/12/17 00:39:33;;;;;;;13.13;6.40;;;2.70;98.00;;;;;;5010757;28;20457;-70
2023/12/17 00:42:01;;;;;;;18.03;5.90;;;2.90;98.00;;;;;;5011938;28;20444;-70
2023/12/17 00:44:28;;;;;;;15.03;5.80;;;3.00;98.00;;;;;;5010647;28;20456;-70
2023/12/17 00:46:55;;;;;;;10.43;4.97;;;3.10;98.00;;;;;;5011920;28;20459;-70
2023/12/17 00:49:22;;;;;;;12.87;5.40;;;2.90;98.00;;;;;;5011670;28;20460;-70
2023/12/17 00:51:49;;;;;;;14.57;5.67;;;2.80;98.00;;;;;;5011451;28;20495;-70
2023/12/17 00:54:17;;;;;;;12.53;5.50;;;2.60;98.00;;;;;;5011649;28;20458;-70
2023/12/17 00:56:46;;;;;;;12.70;5.60;;;2.60;98.00;;;;;;5011930;28;20472;-70
2023/12/17 00:59:13;;;;;;;10.23;5.33;;;2.60;98.00;;;;;;5014317;28;20459;-71
2023/12/17 01:01:40;;;;;;;11.67;5.40;;;2.50;98.00;;;;;;5015525;28;20817;-70
2023/12/17 01:04:07;;;;;;;11.50;5.13;;;2.60;98.00;;;;;;5015082;28;20518;-70
2023/12/17 01:06:34;;;;;;;12.80;5.57;;;2.60;98.00;;;;;;5015730;28;20486;-70
2023/12/17 01:09:01;;;;;;;12.43;6.60;;;2.60;98.00;;;;;;5015184;28;20451;-71
2023/12/17 01:11:28;;;;;;;13.20;6.27;;;2.80;98.00;;;;;;5013733;28;20945;-71
2023/12/17 01:13:57;;;;;;;17.20;5.37;;;2.70;98.00;;;;;;5015119;28;20475;-70
2023/12/17 01:16:23;;;;;;;11.57;5.50;;;2.50;98.00;;;;;;5015050;28;20880;-70
2023/12/17 01:18:51;;;;;;;14.43;6.07;;;2.60;98.00;;;;;;5014881;28;20448;-70
2023/12/17 01:21:27;;;;;;;14.40;5.80;;;2.60;98.00;;;;;;5014686;28;20456;-70
2023/12/17 01:23:54;;;;;;;12.30;5.83;;;2.50;98.00;;;;;;5014872;28;20473;-70
2023/12/17 01:26:23;;;;;;;24.20;6.47;;;2.50;98.00;;;;;;5014829;28;20859;-70
2023/12/17 01:28:50;;;;;;;14.43;6.00;;;2.40;98.00;;;;;;5013919;28;20450;-71
2023/12/17 01:31:18;;;;;;;14.23;6.00;;;2.20;98.00;;;;;;5014654;28;20841;-71
2023/12/17 01:33:45;;;;;;;13.43;6.07;;;2.20;98.00;;;;;;5014711;28;20815;-70
2023/12/17 01:36:12;;;;;;;14.33;5.47;;;2.20;98.00;;;;;;5014550;28;20452;-70
2023/12/17 01:38:39;;;;;;;10.90;5.57;;;2.20;98.00;;;;;;5014662;28;20456;-69
2023/12/17 01:41:07;;;;;;;13.93;5.97;;;2.10;98.00;;;;;;5014619;28;20447;-70
2023/12/17 01:43:34;;;;;;;16.03;5.40;;;2.10;98.00;;;;;;5014358;28;20484;-70
2023/12/17 01:46:02;;;;;;;12.53;6.00;;;2.10;98.00;;;;;;5014421;28;20858;-70
2023/12/17 01:48:31;;;;;;;12.10;5.83;;;2.00;98.00;;;;;;5013757;28;20459;-70
2023/12/17 01:50:58;;;;;;;12.10;5.83;;;2.00;98.00;;;;;;5014377;28;20455;-69
2023/12/17 01:53:26;;;;;;;12.27;5.93;;;2.00;98.00;;;;;;5014215;28;20553;-70
2023/12/17 01:55:54;;;;;;;13.33;5.67;;;2.10;98.00;;;;;;5014198;28;20797;-71
2023/12/17 01:58:22;;;;;;;18.50;5.10;;;2.10;98.00;;;;;;5014124;28;20454;-70
2023/12/17 02:00:50;;;;;;;13.83;5.80;;;2.10;98.00;;;;;;5014294;28;20506;-71
2023/12/17 02:03:17;;;;;;;12.87;5.40;;;2.00;98.00;;;;;;5014074;28;20463;-70
2023/12/17 02:05:47;;;;;;;12.77;6.00;;;1.90;98.00;;;;;;5014124;28;20456;-70
2023/12/17 02:08:14;;;;;;;13.73;5.77;;;2.00;98.00;;;;;;5014021;28;20465;-70
2023/12/17 02:10:41;;;;;;;23.50;5.17;;;2.20;98.00;;;;;;5012391;28;20448;-70
2023/12/17 02:13:10;;;;;;;14.30;5.67;;;2.10;98.00;;;;;;5013969;28;20567;-70
2023/12/17 02:15:38;;;;;;;14.10;5.57;;;2.00;98.00;;;;;;5014050;28;20459;-70
2023/12/17 02:18:05;;;;;;;15.17;5.23;;;1.90;98.00;;;;;;5013554;28;20849;-70
2023/12/17 02:20:34;;;;;;;21.30;6.43;;;1.90;98.00;;;;;;5014011;28;20444;-70
2023/12/17 02:23:04;;;;;;;16.37;5.90;;;1.80;98.00;;;;;;5013701;28;20466;-70
2023/12/17 02:25:32;;;;;;;13.20;6.03;;;1.80;98.00;;;;;;5013822;28;20499;-70
2023/12/17 02:27:59;;;;;;;12.10;5.67;;;2.00;98.00;;;;;;5013734;28;20456;-71
2023/12/17 02:30:26;;;;;;;11.43;5.33;;;2.10;98.00;;;;;;5013628;28;20451;-71
2023/12/17 02:32:53;;;;;;;12.97;5.30;;;2.00;98.00;;;;;;5013509;28;20487;-70
2023/12/17 02:35:21;;;;;;;16.40;5.97;;;2.10;98.00;;;;;;5013176;28;20448;-70
2023/12/17 02:37:48;;;;;;;11.27;5.50;;;2.20;98.00;;;;;;5013786;28;20451;-70
2023/12/17 02:40:17;;;;;;;12.50;5.30;;;2.10;98.00;;;;;;5013681;28;20480;-70
2023/12/17 02:42:44;;;;;;;10.20;4.93;;;2.20;98.00;;;;;;5013506;28;20462;-71
2023/12/17 02:45:12;;;;;;;11.03;5.33;;;2.20;98.00;;;;;;5013600;28;20491;-70
2023/12/17 02:47:39;;;;;;;9.00;4.67;;;2.40;98.00;;;;;;5013602;28;20491;-71
2023/12/17 02:50:07;;;;;;;20.03;5.00;;;2.40;98.00;;;;;;5012541;28;20456;-71
2023/12/17 02:52:34;;;;;;;13.20;5.77;;;2.40;98.00;;;;;;5013256;28;20484;-70
2023/12/17 02:55:02;;;;;;;12.27;4.60;;;2.30;98.00;;;;;;5013142;28;20455;-70
2023/12/17 02:57:30;;;;;;;13.20;5.53;;;2.40;98.00;;;;;;5013332;28;20479;-71
2023/12/17 03:00:00;;;;;;;11.13;5.67;;;2.40;98.00;;;;;;5013069;28;20467;-70
2023/12/17 03:02:27;;;;;;;11.33;5.13;;;2.40;98.00;;;;;;5012774;28;20483;-70
2023/12/17 03:04:54;;;;;;;11.90;4.67;;;2.50;98.00;;;;;;5013088;28;20474;-71
2023/12/17 03:07:22;;;;;;;11.23;5.33;;;2.50;98.00;;;;;;5012915;28;20516;-69
2023/12/17 03:09:49;;;;;;;12.53;6.10;;;2.60;98.00;;;;;;5012943;28;20444;-70
2023/12/17 03:12:16;;;;;;;15.20;5.80;;;2.60;98.00;;;;;;5012594;28;20511;-71
2023/12/17 03:14:45;;;;;;;12.87;5.83;;;2.50;98.00;;;;;;5012646;28;20456;-70
2023/12/17 03:17:13;;;;;;;11.73;5.40;;;2.60;98.00;;;;;;5012758;28;20809;-71
2023/12/17 03:19:41;;;;;;;16.80;6.00;;;2.60;98.00;;;;;;5012886;28;20459;-70
2023/12/17 03:22:11;;;;;;;9.03;5.10;;;2.50;98.00;;;;;;5011672;28;20436;-71
2023/12/17 03:24:38;;;;;;;21.03;5.70;;;2.60;98.00;;;;;;5012250;28;20463;-71
2023/12/17 03:27:06;;;;;;;12.43;5.53;;;2.60;98.00;;;;;;5012778;28;20459;-71
2023/12/17 03:29:34;;;;;;;14.63;5.50;;;2.50;98.00;;;;;;5012447;28;20471;-70
2023/12/17 03:32:03;;;;;;;12.17;5.80;;;2.50;98.00;;;;;;5012483;28;20483;-70
2023/12/17 03:34:30;;;;;;;12.40;5.40;;;2.40;98.00;;;;;;5012586;28;20868;-71
2023/12/17 03:36:57;;;;;;;11.50;5.70;;;2.30;98.00;;;;;;5012454;28;20447;-70
2023/12/17 03:39:24;;;;;;;12.57;5.60;;;2.30;98.00;;;;;;5012399;28;20466;-70
2023/12/17 03:41:51;;;;;;;12.03;5.50;;;2.40;98.00;;;;;;5012485;28;20997;-71
2023/12/17 03:44:18;;;;;;;10.80;5.10;;;2.50;98.00;;;;;;5012483;28;20456;-70
2023/12/17 03:46:45;;;;;;;12.60;5.03;;;2.50;98.00;;;;;;5012348;28;20450;-70
2023/12/17 03:49:14;;;;;;;10.80;5.77;;;2.50;98.00;;;;;;5012248;28;20460;-70
2023/12/17 03:51:42;;;;;;;13.80;5.53;;;2.60;98.00;;;;;;5012130;28;20453;-71
2023/12/17 03:54:09;;;;;;;10.67;4.97;;;2.60;98.00;;;;;;5011904;28;20456;-70
2023/12/17 03:56:36;;;;;;;50.50;5.27;;;2.60;98.00;;;;;;5012168;28;20463;-70
2023/12/17 03:59:04;;;;;;;15.53;5.60;;;2.60;98.00;;;;;;5011995;28;20962;-70
2023/12/17 04:01:31;;;;;;;13.70;5.20;;;2.50;98.00;;;;;;5011589;28;20510;-70
2023/12/17 04:03:58;;;;;;;13.90;5.67;;;2.30;98.00;;;;;;5012102;28;20939;-70
2023/12/17 04:06:27;;;;;;;13.80;5.20;;;2.30;98.00;;;;;;5012101;28;20451;-70
2023/12/17 04:08:54;;;;;;;12.13;4.67;;;2.20;98.00;;;;;;5012026;28;20460;-70
2023/12/17 04:11:21;;;;;;;9.77;4.80;;;2.20;98.00;;;;;;5012073;28;20506;-71
2023/12/17 04:13:48;;;;;;;16.30;5.57;;;2.10;98.00;;;;;;5011925;28;20578;-71
2023/12/17 04:16:15;;;;;;;13.33;5.50;;;2.20;98.00;;;;;;5011807;28;20942;-70
2023/12/17 04:18:42;;;;;;;12.80;5.77;;;2.10;98.00;;;;;;5010081;28;20820;-70
2023/12/17 04:21:09;;;;;;;9.27;4.77;;;2.10;98.00;;;;;;5011264;28;20452;-70
2023/12/17 04:23:38;;;;;;;15.60;5.53;;;2.10;98.00;;;;;;5011470;28;20794;-70
2023/12/17 04:26:06;;;;;;;10.77;4.87;;;2.10;98.00;;;;;;5011938;28;20490;-71
2023/12/17 04:28:33;;;;;;;9.10;4.87;;;2.10;98.00;;;;;;5012035;28;20448;-71
2023/12/17 04:31:00;;;;;;;9.90;4.97;;;2.10;98.00;;;;;;5011980;28;20457;-70
2023/12/17 04:33:28;;;;;;;12.10;5.70;;;2.20;98.00;;;;;;5014655;28;21150;-70
2023/12/17 04:35:55;;;;;;;9.03;4.80;;;2.20;98.00;;;;;;5015977;28;20925;-71
2023/12/17 04:38:23;;;;;;;9.73;4.53;;;2.40;98.00;;;;;;5016021;28;20463;-70
2023/12/17 04:40:52;;;;;;;23.70;5.50;;;2.40;98.00;;;;;;5015803;28;20930;-70
2023/12/17 04:43:20;;;;;;;17.93;5.40;;;2.30;98.00;;;;;;5016040;28;20462;-70
2023/12/17 04:45:47;;;;;;;10.47;5.00;;;2.00;98.00;;;;;;5015490;28;20447;-71
2023/12/17 04:48:14;;;;;;;10.20;4.70;;;1.90;98.00;;;;;;5015780;28;20953;-71
2023/12/17 04:50:43;;;;;;;12.67;5.50;;;2.00;98.00;;;;;;5014663;28;20462;-69
2023/12/17 04:53:10;;;;;;;11.73;5.23;;;2.00;98.00;;;;;;5015217;28;20575;-70
2023/12/17 04:55:37;;;;;;;12.20;5.50;;;1.80;98.00;;;;;;5015332;28;20452;-70
2023/12/17 04:58:06;;;;;;;9.23;4.80;;;1.70;98.00;;;;;;5015471;28;20474;-71
2023/12/17 05:00:33;;;;;;;11.87;5.30;;;1.70;98.00;;;;;;5015531;28;20454;-70
2023/12/17 05:03:00;;;;;;;11.57;5.17;;;1.50;98.00;;;;;;5015253;28;20455;-70
2023/12/17 05:05:27;;;;;;;11.07;5.23;;;1.40;98.00;;;;;;5014623;28;20451;-70
2023/12/17 05:07:54;;;;;;;9.97;5.27;;;1.30;98.00;;;;;;5015097;28;20462;-70
2023/12/17 05:10:23;;;;;;;12.03;5.37;;;1.40;98.00;;;;;;5015318;28;20950;-70
2023/12/17 05:12:50;;;;;;;10.97;5.13;;;1.40;98.00;;;;;;5015010;28;20479;-69
2023/12/17 05:15:18;;;;;;;10.70;4.80;;;1.80;98.00;;;;;;5015007;28;20454;-70
2023/12/17 05:17:45;;;;;;;12.70;5.00;;;1.70;98.00;;;;;;5013972;28;20452;-70
2023/12/17 05:20:12;;;;;;;14.30;5.77;;;1.50;98.00;;;;;;5014996;28;20827;-70
2023/12/17 05:22:39;;;;;;;14.47;5.60;;;1.50;98.00;;;;;;5014970;28;20463;-70
2023/12/17 05:25:08;;;;;;;13.17;6.00;;;1.70;98.00;;;;;;5014580;28;20517;-70
2023/12/17 05:27:37;;;;;;;13.23;5.20;;;1.90;98.00;;;;;;5014331;28;20870;-70
2023/12/17 05:30:05;;;;;;;10.20;5.40;;;2.00;98.00;;;;;;5013881;28;20460;-69
2023/12/17 05:32:34;;;;;;;10.90;5.37;;;1.90;98.00;;;;;;5014937;28;20490;-70
2023/12/17 05:35:01;;;;;;;10.80;5.43;;;1.90;98.00;;;;;;5013408;28;20463;-70
2023/12/17 05:37:28;;;;;;;11.83;5.63;;;1.90;98.00;;;;;;5014711;28;20452;-70
2023/12/17 05:39:55;;;;;;;11.10;5.43;;;1.80;98.00;;;;;;5014603;28;20448;-70
2023/12/17 05:42:22;;;;;;;15.33;4.90;;;1.80;98.00;;;;;;5014084;28;20501;-70
2023/12/17 05:44:50;;;;;;;17.03;6.70;;;1.80;98.00;;;;;;5013666;28;20452;-70
2023/12/17 05:47:18;;;;;;;15.47;5.30;;;1.70;98.00;;;;;;5014487;28;20501;-70
2023/12/17 05:49:46;;;;;;;10.63;5.50;;;1.70;98.00;;;;;;5013837;28;20463;-69
2023/12/17 05:52:14;;;;;;;11.70;5.53;;;1.70;98.00;;;;;;5014423;28;20447;-71
2023/12/17 05:54:41;;;;;;;11.17;5.80;;;1.60;98.00;;;;;;5012883;28;20499;-69
2023/12/17 05:57:08;;;;;;;20.43;7.63;;;1.50;98.00;;;;;;5014392;28;20455;-69
2023/12/17 05:59:35;;;;;;;24.17;7.63;;;1.50;98.00;;;;;;5014443;28;20458;-70
2023/12/17 06:02:02;;;;;;;17.93;6.50;;;1.60;98.00;;;;;;5014265;28;20871;-71
2023/12/17 06:04:30;;;;;;;17.80;6.80;;;1.60;98.00;;;;;;5014380;28;20855;-70
2023/12/17 06:06:58;;;;;;;14.60;6.17;;;1.70;98.00;;;;;;5014290;28;20455;-70
2023/12/17 06:09:26;;;;;;;11.93;5.40;;;1.60;98.00;;;;;;5013944;28;21015;-70
2023/12/17 06:11:55;;;;;;;10.17;5.30;;;1.50;98.00;;;;;;5014200;28;20456;-71
2023/12/17 06:14:22;;;;;;;11.37;5.10;;;1.50;98.00;;;;;;5013979;28;20490;-71
2023/12/17 06:16:49;;;;;;;13.30;5.23;;;1.40;98.00;;;;;;5014000;28;20459;-70
2023/12/17 06:19:16;;;;;;;9.80;5.00;;;1.30;98.00;;;;;;5012978;28;20448;-70
2023/12/17 06:21:43;;;;;;;12.50;5.50;;;1.30;98.00;;;;;;4996434;28;20447;-70
2023/12/17 06:24:12;;;;;;;10.87;5.37;;;1.30;98.00;;;;;;5013667;28;20937;-69
2023/12/17 06:26:39;;;;;;;12.77;5.10;;;1.20;98.00;;;;;;5013966;28;20463;-70
2023/12/17 06:29:12;;;;;;;11.00;4.70;;;1.30;98.00;;;;;;5013651;28;20854;-70
2023/12/17 06:31:39;;;;;;;11.93;4.93;;;1.40;98.00;;;;;;5013956;28;20530;-70
2023/12/17 06:34:07;;;;;;;11.20;5.40;;;1.30;98.00;;;;;;5013110;28;20562;-71
2023/12/17 06:36:34;;;;;;;11.00;4.97;;;1.20;98.00;;;;;;5013364;28;20973;-70
2023/12/17 06:39:01;;;;;;;10.93;5.47;;;1.30;98.00;;;;;;5012598;28;20847;-70
2023/12/17 06:41:30;;;;;;;11.87;5.03;;;1.30;98.00;;;;;;5012714;28;20444;-70
2023/12/17 06:43:57;;;;;;;10.73;5.13;;;1.30;98.00;;;;;;5012416;28;20460;-71
2023/12/17 06:46:24;;;;;;;17.37;7.30;;;1.40;98.00;;;;;;5012506;28;20448;-70
2023/12/17 06:48:51;;;;;;;11.60;5.70;;;1.30;98.00;;;;;;5010917;28;20447;-70
2023/12/17 06:51:19;;;;;;;19.53;7.17;;;1.20;98.00;;;;;;5012398;28;20451;-70
2023/12/17 06:53:46;;;;;;;12.00;6.13;;;1.30;98.00;;;;;;5012279;28;20975;-71
2023/12/17 06:56:13;;;;;;;8.93;5.03;;;1.20;98.00;;;;;;5012191;28;20451;-70
2023/12/17 06:58:42;;;;;;;12.13;5.33;;;1.20;98.00;;;;;;5012449;28;20460;-70
2023/12/17 07:01:09;;;;;;;11.33;5.27;;;1.30;98.00;;;;;;5012172;28;20817;-64
2023/12/17 07:03:36;;;;;;;9.33;5.37;;;1.40;98.00;;;;;;5012135;28;20988;-65
2023/12/17 07:06:03;;;;;;;12.10;5.20;;;1.40;98.00;;;;;;5010601;28;20471;-64
2023/12/17 07:08:30;;;;;;;12.30;5.50;;;1.40;98.00;;;;;;5012212;28;20797;-64
2023/12/17 07:10:57;;;;;;;14.50;6.40;;;1.50;98.00;;;;;;5009782;28;20502;-64
2023/12/17 07:13:24;;;;;;;11.20;5.60;;;1.60;98.00;;;;;;5010811;28;20550;-65
2023/12/17 07:15:53;;;;;;;11.63;5.33;;;1.70;98.00;;;;;;4993042;28;20594;-64
2023/12/17 07:18:20;;;;;;;10.30;4.63;;;1.70;98.00;;;;;;5011035;28;20833;-64
2023/12/17 07:20:47;;;;;;;11.93;5.13;;;1.80;98.00;;;;;;5011984;28;20448;-64
2023/12/17 07:23:14;;;;;;;16.73;5.27;;;1.80;98.00;;;;;;5011819;28;20478;-64
2023/12/17 07:25:41;;;;;;;15.13;5.40;;;1.70;98.00;;;;;;5011634;28;20456;-65
2023/12/17 07:28:08;;;;;;;12.20;5.40;;;1.80;98.00;;;;;;5011539;28;20958;-65
2023/12/17 07:30:35;;;;;;;12.50;5.47;;;1.80;98.00;;;;;;5011692;28;20451;-64
2023/12/17 07:33:06;;;;;;;13.00;5.40;;;1.80;98.00;;;;;;5011367;28;20533;-65
2023/12/17 07:35:33;;;;;;;11.57;5.57;;;1.70;98.00;;;;;;5012116;28;20452;-65
2023/12/17 07:38:00;;;;;;;8.90;4.63;;;1.60;98.00;;;;;;5011716;28;20448;-65
2023/12/17 07:40:27;;;;;;;11.93;4.50;;;1.60;98.00;;;;;;5011789;28;20462;-65
2023/12/17 07:42:54;;;;;;;12.67;5.23;;;1.60;98.00;;;;;;5011674;28;20455;-65
2023/12/17 07:45:21;;;;;;;19.83;5.77;;;1.70;98.00;;;;;;5011455;28;20645;-65
2023/12/17 07:47:48;;;;;;;12.73;5.67;;;1.80;98.00;;;;;;5011818;28;21016;-65
2023/12/17 07:50:16;;;;;;;17.40;6.90;;;1.80;98.00;;;;;;5010422;28;20647;-65
2023/12/17 07:52:43;;;;;;;14.10;6.10;;;1.80;98.00;;;;;;5011685;28;20528;-65
2023/12/17 07:55:11;;;;;;;10.73;5.57;;;1.90;98.00;;;;;;5010182;28;20506;-65
2023/12/17 07:57:38;;;;;;;14.80;6.30;;;1.80;98.00;;;;;;5011467;28;20543;-65
2023/12/17 08:00:07;;;;;;;10.30;5.73;;;1.90;98.00;;;;;;5011512;28;20477;-65
2023/12/17 08:02:35;;;;;;;12.20;6.20;;;1.90;98.00;;;;;;5011662;28;20451;-65
2023/12/17 08:05:02;;;;;;;13.80;5.43;;;1.70;98.00;;;;;;5011482;28;20480;-65
2023/12/17 08:07:31;;;;;;;15.03;6.30;;;1.40;98.00;;;;;;5011246;28;20870;-65
2023/12/17 08:09:58;;;;;;;20.73;6.70;;;1.30;98.00;;;;;;5011606;28;20820;-65
2023/12/17 08:12:25;;;;;;;18.93;7.60;;;1.30;98.00;;;;;;5010605;28;20470;-65
2023/12/17 08:14:52;;;;;;;16.40;6.10;;;1.40;98.00;;;;;;5011771;28;20483;-64
2023/12/17 08:17:20;;;;;;;18.13;6.73;;;1.50;98.00;;;;;;5012435;28;20858;-65
2023/12/17 08:19:48;;;;;;;13.33;6.40;;;1.60;98.00;;;;;;5010591;28;20493;-65
2023/12/17 08:22:16;;;;;;;11.90;5.87;;;1.50;98.00;;;;;;5012908;28;20942;-65
2023/12/17 08:24:45;;;;;;;12.63;5.43;;;1.70;98.00;;;;;;4994310;28;20471;-65
2023/12/17 08:27:13;;;;;;;13.03;5.63;;;1.60;98.00;;;;;;5032216;28;20862;-65
2023/12/17 08:29:41;;;;;;;13.33;6.40;;;1.80;98.00;;;;;;5027956;28;20478;-66
2023/12/17 08:32:08;;;;;;;16.43;5.80;;;2.00;98.00;;;;;;5012731;28;21190;-65
2023/12/17 08:34:37;;;;;;;13.47;5.90;;;1.80;98.00;;;;;;5011797;28;20541;-65
2023/12/17 08:37:04;;;;;;;18.20;7.07;;;1.70;98.00;;;;;;5012995;28;20458;-65
2023/12/17 08:39:33;;;;;;;18.10;6.47;;;1.50;98.00;;;;;;5014557;28;20455;-65
2023/12/17 08:42:01;;;;;;;15.37;6.57;;;1.50;98.00;;;;;;5013598;28;20490;-65
2023/12/17 08:44:28;;;;;;;18.73;6.90;;;1.60;98.00;;;;;;5013125;28;20509;-65
2023/12/17 08:46:55;;;;;;;12.97;5.97;;;1.70;98.00;;;;;;4995697;28;20538;-64
2023/12/17 08:49:22;;;;;;;16.00;6.50;;;1.60;98.00;;;;;;5013365;28;21012;-65
2023/12/17 08:51:50;;;;;;;14.20;5.70;;;1.50;98.00;;;;;;5013551;28;20522;-65
2023/12/17 08:54:17;;;;;;;14.17;6.57;;;1.50;98.00;;;;;;5021135;28;20476;-65
2023/12/17 08:56:44;;;;;;;14.57;6.30;;;1.50;98.00;;;;;;5013745;28;20451;-65
2023/12/17 08:59:13;;;;;;;14.80;6.07;;;1.60;98.00;;;;;;5012424;28;20911;-64
2023/12/17 09:01:40;;;;;;;18.50;7.10;;;1.70;98.00;;;;;;5019267;28;20454;-65
2023/12/17 09:04:08;;;;;;;16.50;7.60;;;1.70;98.00;;;;;;5014780;28;20477;-64
2023/12/17 09:06:44;;;;;;;16.37;6.90;;;1.70;98.00;;;;;;5013291;28;20447;-65
2023/12/17 09:09:11;;;;;;;15.60;6.47;;;1.80;98.00;;;;;;5013057;28;20451;-64
2023/12/17 09:11:38;;;;;;;18.70;7.40;;;1.80;98.00;;;;;;5013088;28;20535;-65
2023/12/17 09:14:05;;;;;;;20.17;8.00;;;1.90;98.00;;;;;;5012909;28;20478;-65
2023/12/17 09:16:33;;;;;;;16.80;7.20;;;2.10;98.00;;;;;;5012125;28;20455;-65
2023/12/17 09:19:00;;;;;;;18.00;7.10;;;2.20;98.00;;;;;;5012053;28;20454;-65
2023/12/17 09:21:28;;;;;;;16.97;7.43;;;2.40;98.00;;;;;;5015175;28;20459;-65
2023/12/17 09:23:55;;;;;;;18.30;7.43;;;2.40;98.00;;;;;;5015245;28;20545;-64
2023/12/17 09:26:23;;;;;;;20.13;7.40;;;2.60;98.00;;;;;;5014449;28;20463;-65
2023/12/17 09:28:53;;;;;;;19.13;7.83;;;2.60;98.00;;;;;;5014056;28;20459;-66
2023/12/17 09:31:20;;;;;;;18.93;7.33;;;2.70;98.00;;;;;;4997370;28;20455;-65
2023/12/17 09:33:49;;;;;;;18.60;7.43;;;2.60;98.00;;;;;;5014128;28;20487;-64
2023/12/17 09:36:16;;;;;;;17.90;7.50;;;2.70;98.00;;;;;;5014216;28;20950;-65
2023/12/17 09:38:44;;;;;;;19.37;8.27;;;2.60;98.00;;;;;;5013929;28;20578;-65
2023/12/17 09:41:11;;;;;;;16.37;7.47;;;2.70;98.00;;;;;;5013998;28;20467;-65
2023/12/17 09:43:38;;;;;;;20.30;7.50;;;2.90;98.00;;;;;;4996686;28;21020;-65
2023/12/17 09:46:05;;;;;;;22.87;9.40;;;3.00;98.00;;;;;;5013981;28;20482;-65
2023/12/17 09:48:32;;;;;;;20.83;8.97;;;3.20;98.00;;;;;;5014012;28;20457;-65
2023/12/17 09:51:03;;;;;;;19.63;7.60;;;3.10;98.00;;;;;;5013933;28;20518;-65
2023/12/17 09:53:31;;;;;;;21.50;7.83;;;3.10;98.00;;;;;;4996265;28;20479;-65
2023/12/17 09:55:58;;;;;;;22.97;8.57;;;3.20;98.00;;;;;;5013689;28;20972;-66
2023/12/17 09:58:26;;;;;;;21.03;8.73;;;3.10;98.00;;;;;;5013784;28;20461;-66
2023/12/17 10:00:53;;;;;;;20.13;8.53;;;3.00;98.00;;;;;;5013781;28;20552;-65
2023/12/17 10:03:21;;;;;;;21.13;9.07;;;2.80;98.00;;;;;;5013554;28;20467;-66
2023/12/17 10:05:51;;;;;;;24.63;8.93;;;2.90;98.00;;;;;;5013805;28;20467;-66
2023/12/17 10:08:20;;;;;;;18.57;8.53;;;2.90;98.00;;;;;;5013519;28;20546;-65
2023/12/17 10:10:47;;;;;;;24.23;9.80;;;2.90;98.00;;;;;;5013483;28;20457;-66
2023/12/17 10:13:18;;;;;;;24.83;8.90;;;3.10;98.00;;;;;;5013480;28;20976;-66
2023/12/17 10:15:48;;;;;;;21.90;9.20;;;3.20;98.00;;;;;;5013759;28;20570;-66
2023/12/17 10:18:16;;;;;;;26.40;9.33;;;3.40;98.00;;;;;;5013521;28;20539;-66
2023/12/17 10:20:45;;;;;;;22.90;8.83;;;3.50;98.00;;;;;;5013626;28;20891;-66
2023/12/17 10:23:13;;;;;;;26.00;9.70;;;3.60;98.00;;;;;;5013071;28;20455;-66
2023/12/17 10:25:42;;;;;;;21.80;9.07;;;3.70;98.00;;;;;;5013196;28;20473;-66
2023/12/17 10:28:11;;;;;;;26.70;9.70;;;3.80;98.00;;;;;;5012483;28;20448;-66
2023/12/17 10:30:39;;;;;;;22.10;9.17;;;3.80;98.00;;;;;;5013019;28;20523;-66
2023/12/17 10:33:09;;;;;;;24.57;9.90;;;3.90;98.00;;;;;;5013237;28;20670;-66
2023/12/17 10:35:37;;;;;;;22.43;9.57;;;3.80;98.00;;;;;;5012744;28;20488;-66
2023/12/17 10:38:06;;;;;;;25.43;9.87;;;3.60;98.00;;;;;;5012969;28;20876;-66
2023/12/17 10:40:35;;;;;;;24.90;10.03;;;3.50;98.00;;;;;;5012802;28;20489;-66
2023/12/17 10:43:06;;;;;;;22.97;9.47;;;3.50;98.00;;;;;;5012696;28;20490;-66
2023/12/17 10:45:35;;;;;;;28.20;10.90;;;3.50;98.00;;;;;;5012313;28;20454;-66
2023/12/17 10:48:03;;;;;;;22.57;9.00;;;3.50;98.00;;;;;;5012982;28;20467;-66
2023/12/17 10:50:30;;;;;;;23.80;10.47;;;3.50;98.00;;;;;;5012339;28;20601;-66
2023/12/17 10:52:58;;;;;;;27.40;10.13;;;3.70;98.00;;;;;;5012758;28;20950;-66
2023/12/17 10:55:25;;;;;;;27.97;10.80;;;3.80;98.00;;;;;;5012482;28;20487;-66
2023/12/17 10:57:58;;;;;;;25.40;9.13;;;3.70;98.00;;;;;;4995216;28;20548;-65
2023/12/17 11:00:29;;;;;;;25.57;9.27;;;3.90;98.00;;;;;;5013056;28;20838;-66
2023/12/17 11:02:58;;;;;;;27.57;9.73;;;4.10;98.00;;;;;;5012625;28;20459;-66
2023/12/17 11:05:25;;;;;;;27.33;10.30;;;4.30;98.00;;;;;;5011757;28;20466;-66
2023/12/17 11:07:53;;;;;;;23.33;9.87;;;4.50;98.00;;;;;;5012436;28;20948;-66
2023/12/17 11:10:20;;;;;;;25.10;9.63;;;4.80;98.00;;;;;;5012344;28;20454;-66
2023/12/17 11:12:47;;;;;;;19.57;8.67;;;4.80;98.00;;;;;;5012386;28;20462;-66
2023/12/17 11:15:15;;;;;;;23.63;9.40;;;4.80;98.00;;;;;;5012195;28;20481;-66
2023/12/17 11:17:45;;;;;;;26.10;9.60;;;5.00;98.00;;;;;;5012208;28;20449;-66
2023/12/17 11:20:12;;;;;;;23.23;10.13;;;5.00;98.00;;;;;;5012282;28;20453;-65
2023/12/17 11:22:40;;;;;;;22.00;8.97;;;5.00;98.00;;;;;;4994641;28;20448;-66
2023/12/17 11:25:11;;;;;;;25.60;9.30;;;5.00;98.00;;;;;;5011857;28;20489;-66
2023/12/17 11:27:39;;;;;;;21.80;9.83;;;5.00;98.00;;;;;;5012353;28;20461;-66
2023/12/17 11:30:27;;;;;;;21.23;9.50;;;5.20;98.00;;;;;;5011918;28;20462;-66
2023/12/17 11:32:58;;;;;;;24.00;9.47;;;5.40;98.00;;;;;;5012358;28;20454;-66
2023/12/17 11:35:25;;;;;;;22.40;9.70;;;5.50;98.00;;;;;;5012080;28;20576;-65
2023/12/17 11:37:55;;;;;;;22.20;9.40;;;5.50;98.00;;;;;;5011973;28;20452;-66
2023/12/17 11:40:22;;;;;;;21.83;9.27;;;5.60;98.00;;;;;;5010677;28;20875;-67
2023/12/17 11:43:00;;;;;;;23.73;9.50;;;5.70;98.00;;;;;;5011694;28;20953;-65
2023/12/17 11:45:36;;;;;;;22.20;9.60;;;5.70;98.00;;;;;;5012021;28;20513;-67
2023/12/17 11:48:09;;;;;;;22.87;9.70;;;5.50;98.00;;;;;;5012031;28;20455;-66
2023/12/17 11:50:46;;;;;;;23.43;9.63;;;5.60;98.00;;;;;;5011599;28;20929;-66
2023/12/17 11:53:14;;;;;;;26.43;10.60;;;5.80;98.00;;;;;;5011376;28;20447;-66
2023/12/17 11:55:44;;;;;;;24.90;9.93;;;6.10;98.00;;;;;;5011701;28;20494;-65
2023/12/17 11:58:11;;;;;;;26.40;10.20;;;6.00;98.00;;;;;;5011774;28;20462;-65
2023/12/17 12:00:39;;;;;;;23.87;9.90;;;6.00;98.00;;;;;;5011842;28;20451;-65
2023/12/17 12:03:07;;;;;;;27.23;10.93;;;6.10;98.00;;;;;;5011903;28;20930;-66
2023/12/17 12:05:35;;;;;;;21.80;10.37;;;6.20;98.00;;;;;;5011427;28;20461;-65
2023/12/17 12:08:02;;;;;;;25.37;9.80;;;6.10;98.00;;;;;;5011709;28;20533;-66
2023/12/17 12:10:30;;;;;;;24.33;10.30;;;6.10;98.00;;;;;;5011889;28;20452;-65
2023/12/17 12:13:04;;;;;;;23.50;9.93;;;6.20;98.00;;;;;;5011957;28;20905;-65
2023/12/17 12:15:31;;;;;;;25.27;10.43;;;6.30;98.00;;;;;;5011692;28;21021;-66
2023/12/17 12:17:58;;;;;;;22.50;10.13;;;6.40;98.00;;;;;;5011430;28;20459;-65
2023/12/17 12:20:38;;;;;;;22.57;10.40;;;6.70;98.00;;;;;;5011448;28;20518;-66
2023/12/17 12:23:11;;;;;;;26.30;10.00;;;6.90;98.00;;;;;;5011551;28;20512;-65
2023/12/17 12:25:39;;;;;;;22.17;9.90;;;7.10;98.00;;;;;;5011369;28;20567;-66
2023/12/17 12:28:07;;;;;;;23.23;9.10;;;7.30;98.00;;;;;;5011737;28;21172;-66
2023/12/17 12:30:34;;;;;;;21.60;8.90;;;7.50;98.00;;;;;;5011405;28;20546;-65
2023/12/17 12:33:11;;;;;;;20.50;8.77;;;7.70;98.00;;;;;;5011617;28;20457;-67
2023/12/17 12:35:40;;;;;;;18.97;8.17;;;8.00;98.00;;;;;;5011327;28;20534;-67
2023/12/17 12:38:20;;;;;;;16.53;7.13;;;8.10;98.00;;;;;;5011268;28;20458;-66
2023/12/17 12:40:50;;;;;;;15.33;7.47;;;8.30;98.00;;;;;;5011779;28;20450;-66
2023/12/17 12:43:17;;;;;;;16.40;7.13;;;8.40;98.00;;;;;;5011343;28;20451;-66
2023/12/17 12:45:46;;;;;;;17.17;6.80;;;8.60;98.00;;;;;;5011101;28;20493;-66
2023/12/17 12:48:20;;;;;;;12.33;6.30;;;8.80;98.00;;;;;;5011403;28;20480;-66
2023/12/17 12:50:50;;;;;;;14.13;6.40;;;8.90;98.00;;;;;;5011440;28;20556;-67